createdAt,value
2022-10-25T00:00:47.837Z,13.33
2022-10-25T00:03:49.493Z,15.70
2022-10-25T00:06:51.039Z,14.23
2022-10-25T00:09:52.704Z,14.97
2022-10-25T00:12:54.510Z,12.80
2022-10-25T00:15:56.123Z,11.17
2022-10-25T00:18:57.660Z,11.13
2022-10-25T00:21:59.312Z,12.93
2022-10-25T00:25:00.910Z,12.37
2022-10-25T00:28:02.433Z,14.27
2022-10-25T00:31:05.608Z,16.20
2022-10-25T00:34:07.259Z,14.43
2022-10-25T00:37:08.860Z,14.27
2022-10-25T00:40:10.793Z,10.13
2022-10-25T00:43:29.281Z,14.30
2022-10-25T00:46:31.936Z,18.03
2022-10-25T00:49:34.174Z,14.73
2022-10-25T00:52:36.861Z,12.77
2022-10-25T00:55:40.626Z,15.10
2022-10-25T00:58:45.065Z,15.13
2022-10-25T01:01:47.151Z,18.87
2022-10-25T01:04:49.554Z,14.93
2022-10-25T01:07:51.285Z,18.53
2022-10-25T01:10:52.848Z,19.53
2022-10-25T01:13:54.614Z,11.63
2022-10-25T01:16:56.203Z,14.77
2022-10-25T01:20:24.641Z,14.23
2022-10-25T01:23:44.649Z,13.80
2022-10-25T01:26:46.273Z,12.73
2022-10-25T01:30:06.497Z,18.53
2022-10-25T01:33:22.729Z,18.90
2022-10-25T01:36:44.522Z,15.53
2022-10-25T01:39:53.512Z,17.90
2022-10-25T01:43:13.233Z,19.47
2022-10-25T01:46:17.702Z,16.37
2022-10-25T01:49:31.362Z,19.50
2022-10-25T01:52:32.975Z,18.63
2022-10-25T01:55:37.132Z,20.73
2022-10-25T01:58:44.738Z,16.13
2022-10-25T02:01:52.227Z,16.00
2022-10-25T02:05:01.361Z,14.07
2022-10-25T02:08:21.987Z,17.07
2022-10-25T02:11:24.551Z,13.10
2022-10-25T02:14:37.511Z,17.33
2022-10-25T02:17:43.208Z,13.47
2022-10-25T02:20:46.822Z,14.03
2022-10-25T02:23:49.116Z,16.97
2022-10-25T02:26:51.396Z,15.40
2022-10-25T02:29:53.589Z,16.83
2022-10-25T02:32:55.129Z,17.63
2022-10-25T02:36:07.265Z,13.67
2022-10-25T02:39:08.891Z,15.10
2022-10-25T02:42:10.435Z,13.27
2022-10-25T02:45:12.038Z,18.27
2022-10-25T02:48:13.573Z,15.97
2022-10-25T02:51:15.865Z,18.00
2022-10-25T02:54:17.398Z,17.93
2022-10-25T02:57:18.926Z,14.70
2022-10-25T03:00:20.601Z,17.83
2022-10-25T03:03:22.160Z,20.33
2022-10-25T03:06:23.807Z,20.03
2022-10-25T03:09:25.424Z,18.93
2022-10-25T03:12:27.021Z,18.60
2022-10-25T03:15:28.644Z,22.97
2022-10-25T03:18:30.382Z,16.43
2022-10-25T03:21:32.239Z,20.47
2022-10-25T03:24:33.775Z,19.87
2022-10-25T03:27:35.367Z,24.53
2022-10-25T03:30:36.921Z,22.13
2022-10-25T03:33:39.729Z,15.70
2022-10-25T03:36:41.300Z,17.17
2022-10-25T03:39:42.857Z,27.93
2022-10-25T03:42:44.818Z,18.77
2022-10-25T03:45:46.368Z,16.80
2022-10-25T03:48:47.973Z,19.40
2022-10-25T03:51:52.348Z,23.70
2022-10-25T03:54:57.581Z,19.53
2022-10-25T03:57:59.185Z,22.27
2022-10-25T04:01:01.201Z,14.03
2022-10-25T04:04:02.966Z,19.50
2022-10-25T04:07:04.578Z,18.77
2022-10-25T04:10:06.375Z,20.27
2022-10-25T04:13:08.022Z,20.57
2022-10-25T04:16:09.568Z,16.67
2022-10-25T04:19:11.210Z,23.57
2022-10-25T04:22:13.088Z,23.00
2022-10-25T04:25:14.707Z,25.60
2022-10-25T04:28:16.313Z,19.43
2022-10-25T04:31:18.227Z,22.00
2022-10-25T04:34:19.929Z,19.40
2022-10-25T04:37:21.541Z,24.93
2022-10-25T04:40:24.929Z,19.27
2022-10-25T04:43:27.661Z,17.43
2022-10-25T04:46:29.245Z,29.37
2022-10-25T04:49:30.813Z,29.17
2022-10-25T04:52:32.688Z,26.43
2022-10-25T04:55:34.332Z,20.00
2022-10-25T04:58:36.423Z,27.53
2022-10-25T05:01:38.266Z,23.17
2022-10-25T05:04:39.867Z,22.30
2022-10-25T05:07:41.402Z,16.80
2022-10-25T05:10:43.076Z,25.37
2022-10-25T05:13:47.694Z,27.70
2022-10-25T05:16:49.265Z,26.50
2022-10-25T05:19:50.897Z,21.20
2022-10-25T05:22:52.481Z,26.63
2022-10-25T05:26:04.260Z,33.67
2022-10-25T05:29:10.143Z,23.07
2022-10-25T05:32:12.007Z,28.27
2022-10-25T05:35:13.544Z,22.53
2022-10-25T05:38:15.213Z,22.53
2022-10-25T05:41:17.917Z,26.57
2022-10-25T05:44:19.550Z,23.10
2022-10-25T05:47:21.098Z,25.50
2022-10-25T05:50:22.798Z,34.67
2022-10-25T05:53:24.398Z,37.10
2022-10-25T05:56:27.392Z,32.23
2022-10-25T05:59:29.010Z,30.70
2022-10-25T06:02:31.245Z,37.77
2022-10-25T06:05:33.014Z,26.83
2022-10-25T06:08:35.071Z,41.70
2022-10-25T06:11:37.244Z,30.20
2022-10-25T06:14:38.847Z,29.63
2022-10-25T06:17:40.370Z,30.43
2022-10-25T06:23:48.864Z,32.67
2022-10-25T06:26:50.427Z,28.37
2022-10-25T06:29:51.988Z,23.20
2022-10-25T06:32:54.684Z,25.00
2022-10-25T06:35:57.053Z,19.87
2022-10-25T06:39:03.774Z,28.07
2022-10-25T06:42:08.354Z,29.80
2022-10-25T06:45:10.244Z,33.07
2022-10-25T06:48:11.844Z,28.03
2022-10-25T06:51:14.608Z,26.77
2022-10-25T06:54:16.302Z,28.07
2022-10-25T06:57:17.965Z,24.00
2022-10-25T07:00:19.705Z,28.90
2022-10-25T07:03:29.857Z,32.40
2022-10-25T07:06:37.995Z,27.20
2022-10-25T07:09:39.651Z,32.27
2022-10-25T07:12:41.311Z,29.80
2022-10-25T07:15:42.949Z,31.40
2022-10-25T07:18:44.795Z,33.70
2022-10-25T07:21:46.365Z,80.60
2022-10-25T07:24:47.926Z,155.70
2022-10-25T07:27:49.705Z,61.97
2022-10-25T07:30:51.672Z,53.10
2022-10-25T07:33:54.072Z,48.30
2022-10-25T07:36:55.689Z,30.80
2022-10-25T07:39:57.368Z,25.80
2022-10-25T07:42:58.994Z,35.63
2022-10-25T07:46:00.833Z,28.63
2022-10-25T07:49:02.508Z,27.77
2022-10-25T07:52:04.145Z,21.80
2022-10-25T07:55:05.972Z,28.63
2022-10-25T07:58:08.324Z,36.17
2022-10-25T08:01:10.815Z,32.40
2022-10-25T08:04:12.425Z,34.30
2022-10-25T08:07:14.024Z,36.03
2022-10-25T08:10:15.667Z,39.97
2022-10-25T08:13:17.341Z,32.40
2022-10-25T08:16:19.026Z,33.25
2022-10-25T08:19:20.591Z,25.08
2022-10-25T08:22:22.201Z,27.95
2022-10-25T08:25:26.257Z,24.02
2022-10-25T08:28:30.792Z,24.63
2022-10-25T08:31:32.376Z,26.77
2022-10-25T08:34:34.128Z,28.33
2022-10-25T08:37:35.738Z,22.58
2022-10-25T08:40:45.215Z,34.17
2022-10-25T08:47:23.256Z,23.88
2022-10-25T08:50:45.084Z,27.33
2022-10-25T08:53:49.851Z,27.10
2022-10-25T08:57:10.693Z,24.55
2022-10-25T09:00:20.575Z,23.95
2022-10-25T09:03:26.409Z,26.45
2022-10-25T09:06:46.699Z,27.10
2022-10-25T09:10:02.088Z,20.25
2022-10-25T09:13:09.793Z,23.25
2022-10-25T09:16:16.869Z,26.70
2022-10-25T09:19:21.227Z,31.48
2022-10-25T09:22:27.519Z,26.98
2022-10-25T09:25:29.186Z,23.63
2022-10-25T09:28:36.595Z,26.60
2022-10-25T09:31:41.043Z,27.42
2022-10-25T09:34:43.012Z,28.73
2022-10-25T09:37:48.715Z,24.60
2022-10-25T09:40:57.008Z,27.30
2022-10-25T09:44:04.507Z,22.57
2022-10-25T09:47:18.574Z,28.77
2022-10-25T09:50:20.243Z,21.90
2022-10-25T09:53:24.067Z,23.20
2022-10-25T09:56:25.933Z,31.23
2022-10-25T09:59:28.174Z,22.87
2022-10-25T10:02:29.814Z,22.13
2022-10-25T10:05:32.036Z,19.40
2022-10-25T10:08:35.130Z,25.57
2022-10-25T10:11:36.741Z,24.60
2022-10-25T10:14:40.500Z,22.50
2022-10-25T10:17:42.138Z,18.43
2022-10-25T10:20:55.878Z,26.00
2022-10-25T10:24:05.431Z,21.20
2022-10-25T10:27:09.048Z,25.70
2022-10-25T10:30:20.669Z,19.93
2022-10-25T10:33:22.611Z,27.30
2022-10-25T10:36:24.290Z,17.90
2022-10-25T10:39:25.999Z,23.87
2022-10-25T10:42:34.185Z,20.27
2022-10-25T10:45:35.925Z,21.00
2022-10-25T10:48:43.263Z,24.87
2022-10-25T10:51:45.699Z,23.43
2022-10-25T10:54:47.955Z,24.43
2022-10-25T10:57:52.018Z,23.57
2022-10-25T11:00:58.958Z,22.83
2022-10-25T11:04:01.303Z,27.07
2022-10-25T11:07:38.190Z,26.83
2022-10-25T11:10:40.293Z,27.20
2022-10-25T11:13:50.041Z,24.53
2022-10-25T11:17:07.037Z,25.10
2022-10-25T11:20:35.683Z,19.87
2022-10-25T11:23:52.418Z,21.10
2022-10-25T11:27:12.159Z,19.27
2022-10-25T11:30:23.832Z,16.23
2022-10-25T11:33:37.726Z,23.57
2022-10-25T11:36:45.117Z,20.70
2022-10-25T11:39:52.491Z,20.60
2022-10-25T11:42:54.073Z,24.00
2022-10-25T11:45:59.724Z,21.10
2022-10-25T11:49:07.539Z,19.40
2022-10-25T11:52:11.958Z,25.07
2022-10-25T11:55:26.017Z,18.00
2022-10-25T11:58:54.081Z,22.13
2022-10-25T12:02:14.376Z,17.43
2022-10-25T12:05:27.956Z,25.83
2022-10-25T12:09:05.102Z,24.57
2022-10-25T12:12:09.794Z,20.43
2022-10-25T12:15:15.447Z,28.50
2022-10-25T12:18:26.114Z,21.63
2022-10-25T12:21:30.997Z,28.40
2022-10-25T12:24:49.685Z,17.23
2022-10-25T12:27:56.818Z,22.40
2022-10-25T12:31:07.009Z,27.13
2022-10-25T12:34:11.588Z,20.43
2022-10-25T12:37:21.698Z,18.43
2022-10-25T12:43:37.575Z,18.60
2022-10-25T12:46:45.132Z,26.43
2022-10-25T12:49:57.872Z,24.20
2022-10-25T12:53:17.923Z,21.57
2022-10-25T12:56:25.310Z,16.13
2022-10-25T12:59:26.883Z,24.70
2022-10-25T13:02:47.068Z,21.80
2022-10-25T13:05:49.314Z,26.20
2022-10-25T13:08:50.943Z,20.37
2022-10-25T13:11:59.631Z,20.50
2022-10-25T13:15:02.386Z,18.57
2022-10-25T13:18:07.012Z,20.03
2022-10-25T13:21:10.474Z,26.43
2022-10-25T13:24:32.059Z,27.17
2022-10-25T13:27:34.331Z,30.70
2022-10-25T13:30:35.919Z,18.03
2022-10-25T13:33:37.568Z,18.47
2022-10-25T13:36:51.695Z,19.77
2022-10-25T13:39:54.376Z,23.70
2022-10-25T13:43:19.525Z,19.50
2022-10-25T13:46:24.188Z,21.83
2022-10-25T13:49:25.767Z,20.87
2022-10-25T13:52:30.699Z,24.87
2022-10-25T13:55:36.813Z,18.10
2022-10-25T13:58:43.274Z,16.33
2022-10-25T14:01:44.878Z,17.77
2022-10-25T14:04:46.657Z,17.80
2022-10-25T14:07:48.686Z,26.73
2022-10-25T14:10:50.806Z,21.87
2022-10-25T14:13:58.351Z,19.17
2022-10-25T14:17:03.082Z,17.93
2022-10-25T14:20:21.108Z,20.70
2022-10-25T14:23:24.212Z,25.93
2022-10-25T14:26:25.808Z,23.10
2022-10-25T14:29:28.599Z,28.43
2022-10-25T14:32:30.157Z,20.63
2022-10-25T14:35:33.820Z,20.67
2022-10-25T14:38:37.354Z,32.97
2022-10-25T14:41:39.141Z,24.97
2022-10-25T14:44:45.785Z,26.37
2022-10-25T14:47:47.365Z,26.93
2022-10-25T14:50:49.233Z,21.73
2022-10-25T14:53:50.830Z,27.20
2022-10-25T14:56:57.312Z,18.53
2022-10-25T15:00:01.394Z,26.83
2022-10-25T15:03:04.500Z,21.93
2022-10-25T15:06:06.217Z,19.47
2022-10-25T15:09:41.852Z,30.50
2022-10-25T15:12:39.535Z,26.53
2022-10-25T15:15:44.653Z,25.20
2022-10-25T15:19:02.148Z,35.20
2022-10-25T15:22:10.609Z,30.40
2022-10-25T15:25:21.425Z,29.70
2022-10-25T15:28:23.325Z,25.33
2022-10-25T15:31:26.228Z,29.07
2022-10-25T15:34:28.016Z,37.63
2022-10-25T15:37:29.630Z,32.67
2022-10-25T15:40:31.237Z,27.07
2022-10-25T15:43:32.781Z,37.43
2022-10-25T15:46:34.788Z,38.20
2022-10-25T15:49:39.125Z,36.87
2022-10-25T15:52:43.337Z,30.00
2022-10-25T15:55:45.104Z,32.37
2022-10-25T15:58:47.097Z,33.80
2022-10-25T16:01:51.513Z,38.97
2022-10-25T16:04:53.284Z,31.37
2022-10-25T16:07:55.865Z,34.03
2022-10-25T16:10:58.359Z,32.00
2022-10-25T16:14:00.131Z,36.87
2022-10-25T16:17:01.811Z,37.37
2022-10-25T16:20:03.485Z,42.70
2022-10-25T16:23:05.136Z,27.30
2022-10-25T16:26:06.721Z,30.47
2022-10-25T16:29:29.617Z,24.67
2022-10-25T16:32:31.143Z,32.00
2022-10-25T16:35:32.804Z,35.53
2022-10-25T16:38:34.384Z,35.87
2022-10-25T16:41:37.177Z,37.03
2022-10-25T16:44:38.802Z,27.87
2022-10-25T16:47:40.525Z,36.47
2022-10-25T16:50:42.155Z,35.70
2022-10-25T16:53:44.181Z,32.03
2022-10-25T16:56:45.769Z,36.57
2022-10-25T16:59:47.445Z,41.03
2022-10-25T17:02:49.294Z,36.83
2022-10-25T17:05:52.446Z,45.70
2022-10-25T17:08:54.302Z,40.50
2022-10-25T17:11:55.893Z,43.53
2022-10-25T17:14:57.454Z,33.63
2022-10-25T17:17:59.185Z,42.00
2022-10-25T17:21:04.927Z,32.10
2022-10-25T17:24:08.505Z,36.23
2022-10-25T17:27:10.263Z,32.63
2022-10-25T17:30:12.031Z,34.80
2022-10-25T17:33:13.583Z,40.57
2022-10-25T17:36:16.548Z,26.33
2022-10-25T17:39:18.385Z,29.27
2022-10-25T17:42:20.305Z,27.33
2022-10-25T17:45:22.050Z,30.33
2022-10-25T17:48:23.704Z,20.80
2022-10-25T17:51:25.580Z,33.80
2022-10-25T17:54:27.176Z,31.67
2022-10-25T17:57:29.022Z,30.23
2022-10-25T18:00:30.642Z,28.40
2022-10-25T18:03:33.813Z,27.97
2022-10-25T18:06:35.441Z,30.00
2022-10-25T18:09:38.687Z,26.20
2022-10-25T18:12:40.275Z,23.73
2022-10-25T18:15:41.971Z,25.27
2022-10-25T18:18:43.590Z,25.73
2022-10-25T18:21:45.342Z,27.43
2022-10-25T18:24:48.365Z,19.83
2022-10-25T18:27:50.285Z,17.40
2022-10-25T18:30:52.343Z,22.53
2022-10-25T18:33:55.468Z,27.63
2022-10-25T18:36:57.111Z,21.97
2022-10-25T18:39:58.774Z,21.90
2022-10-25T18:43:00.474Z,28.47
2022-10-25T18:46:02.872Z,27.13
2022-10-25T18:49:04.545Z,27.20
2022-10-25T18:52:07.545Z,28.60
2022-10-25T18:55:11.489Z,35.33
2022-10-25T18:58:15.999Z,28.17
2022-10-25T19:01:20.535Z,29.10
2022-10-25T19:04:23.606Z,33.30
2022-10-25T19:07:25.511Z,28.97
2022-10-25T19:10:27.182Z,27.03
2022-10-25T19:13:28.797Z,19.40
2022-10-25T19:16:30.384Z,25.47
2022-10-25T19:19:32.048Z,26.20
2022-10-25T19:22:33.847Z,22.07
2022-10-25T19:25:35.900Z,22.93
2022-10-25T19:28:37.707Z,25.77
2022-10-25T19:31:39.362Z,25.60
2022-10-25T19:34:41.014Z,26.87
2022-10-25T19:37:42.689Z,21.77
2022-10-25T19:40:45.399Z,23.73
2022-10-25T19:43:47.237Z,19.33
2022-10-25T19:46:49.453Z,17.50
2022-10-25T19:49:51.074Z,16.40
2022-10-25T19:52:52.670Z,20.07
2022-10-25T19:56:00.951Z,21.87
2022-10-25T19:59:03.514Z,20.57
2022-10-25T20:02:05.230Z,22.33
2022-10-25T20:05:07.052Z,20.23
2022-10-25T20:08:08.663Z,21.70
2022-10-25T20:11:11.425Z,19.23
2022-10-25T20:14:13.015Z,26.30
2022-10-25T20:17:15.488Z,26.47
2022-10-25T20:20:17.054Z,20.83
2022-10-25T20:23:18.641Z,23.17
2022-10-25T20:26:21.428Z,24.03
2022-10-25T20:29:23.809Z,22.77
2022-10-25T20:32:25.398Z,26.90
2022-10-25T20:35:27.207Z,25.40
2022-10-25T20:38:29.062Z,18.17
2022-10-25T20:41:31.109Z,20.73
2022-10-25T20:44:32.722Z,18.03
2022-10-25T20:47:34.255Z,21.50
2022-10-25T20:50:35.822Z,21.53
2022-10-25T20:53:38.500Z,22.43
2022-10-25T20:56:40.129Z,27.90
2022-10-25T20:59:41.673Z,25.73
2022-10-25T21:02:43.939Z,22.50
2022-10-25T21:05:45.471Z,20.43
2022-10-25T21:08:47.105Z,22.03
2022-10-25T21:11:48.707Z,20.90
2022-10-25T21:14:50.295Z,20.23
2022-10-25T21:17:52.005Z,21.10
2022-10-25T21:20:53.668Z,21.17
2022-10-25T21:23:56.185Z,25.07
2022-10-25T21:26:57.763Z,19.77
2022-10-25T21:29:59.295Z,22.80
2022-10-25T21:33:02.273Z,18.63
2022-10-25T21:36:04.992Z,22.10
2022-10-25T21:39:06.518Z,22.80
2022-10-25T21:42:08.162Z,23.23
2022-10-25T21:45:09.953Z,22.57
2022-10-25T21:48:11.722Z,23.57
2022-10-25T21:51:13.632Z,22.17
2022-10-25T21:54:15.224Z,18.00
2022-10-25T21:57:16.769Z,21.03
2022-10-25T22:00:18.440Z,26.20
2022-10-25T22:03:22.012Z,19.23
2022-10-25T22:06:27.187Z,25.73
2022-10-25T22:09:28.806Z,18.70
2022-10-25T22:12:30.416Z,18.83
2022-10-25T22:15:31.964Z,22.20
2022-10-25T22:18:33.746Z,27.77
2022-10-25T22:21:36.614Z,23.27
2022-10-25T22:24:38.230Z,23.93
2022-10-25T22:27:39.908Z,24.63
2022-10-25T22:30:41.587Z,20.57
2022-10-25T22:33:43.804Z,21.43
2022-10-25T22:36:45.497Z,21.27
2022-10-25T22:39:47.121Z,22.77
2022-10-25T22:42:48.736Z,17.13
2022-10-25T22:45:50.312Z,19.83
2022-10-25T22:48:53.057Z,22.83
2022-10-25T22:51:54.638Z,19.47
2022-10-25T22:54:56.209Z,24.77
2022-10-25T22:57:57.750Z,25.43
2022-10-25T23:01:00.502Z,20.33
2022-10-25T23:04:04.369Z,27.03
2022-10-25T23:07:06.077Z,18.97
2022-10-25T23:10:07.750Z,18.73
2022-10-25T23:13:09.349Z,23.37
2022-10-25T23:16:11.655Z,19.60
2022-10-25T23:19:13.255Z,21.43
2022-10-25T23:22:14.826Z,19.40
2022-10-25T23:25:16.506Z,23.40
2022-10-25T23:28:18.083Z,19.50
2022-10-25T23:31:19.698Z,24.77
2022-10-25T23:34:21.370Z,30.97
2022-10-25T23:37:22.921Z,18.27
2022-10-25T23:40:24.763Z,23.97
2022-10-25T23:43:26.450Z,21.03
2022-10-25T23:46:28.016Z,15.90
2022-10-25T23:49:29.673Z,21.23
2022-10-25T23:52:31.238Z,25.00
2022-10-25T23:55:32.861Z,23.70
2022-10-25T23:58:34.552Z,20.83
